createdAt,value
2023-04-22T00:01:30.222Z,7.40
2023-04-22T00:04:00.175Z,7.90
2023-04-22T00:06:28.729Z,7.37
2023-04-22T00:08:56.913Z,7.97
2023-04-22T00:11:25.261Z,7.50
2023-04-22T00:13:53.586Z,7.40
2023-04-22T00:16:22.085Z,7.00
2023-04-22T00:18:50.364Z,7.20
2023-04-22T00:21:20.012Z,7.10
2023-04-22T00:23:49.779Z,6.40
2023-04-22T00:26:18.150Z,8.10
2023-04-22T00:28:46.441Z,7.07
2023-04-22T00:31:15.168Z,8.00
2023-04-22T00:33:46.387Z,6.80
2023-04-22T00:36:15.123Z,6.67
2023-04-22T00:38:49.307Z,6.70
2023-04-22T00:41:17.992Z,7.80
2023-04-22T00:43:46.398Z,8.20
2023-04-22T00:46:17.241Z,7.03
2023-04-22T00:48:47.250Z,7.40
2023-04-22T00:51:15.830Z,7.07
2023-04-22T00:53:46.055Z,7.20
2023-04-22T00:56:14.587Z,6.70
2023-04-22T00:58:42.973Z,8.10
2023-04-22T01:01:12.549Z,7.57
2023-04-22T01:03:42.439Z,7.57
2023-04-22T01:06:10.979Z,7.03
2023-04-22T01:08:39.202Z,7.83
2023-04-22T01:11:09.081Z,8.03
2023-04-22T01:13:38.298Z,8.00
2023-04-22T01:16:09.845Z,7.33
2023-04-22T01:18:38.281Z,7.37
2023-04-22T01:21:07.051Z,8.00
2023-04-22T01:23:37.228Z,8.30
2023-04-22T01:26:06.517Z,8.97
2023-04-22T01:28:37.559Z,8.53
2023-04-22T01:31:05.874Z,8.10
2023-04-22T01:33:35.201Z,7.23
2023-04-22T01:36:05.131Z,8.13
2023-04-22T01:38:34.297Z,8.07
2023-04-22T01:41:04.627Z,8.13
2023-04-22T01:43:33.718Z,7.50
2023-04-22T01:46:02.470Z,7.30
2023-04-22T01:48:31.067Z,6.73
2023-04-22T01:50:59.341Z,8.40
2023-04-22T01:53:28.229Z,7.70
2023-04-22T01:55:56.408Z,6.60
2023-04-22T01:58:26.015Z,6.87
2023-04-22T02:00:54.242Z,6.00
2023-04-22T02:03:22.495Z,6.67
2023-04-22T02:05:50.780Z,6.10
2023-04-22T02:08:19.295Z,6.23
2023-04-22T02:10:47.624Z,5.80
2023-04-22T02:13:15.980Z,6.50
2023-04-22T02:15:46.024Z,5.77
2023-04-22T02:18:14.355Z,6.00
2023-04-22T02:20:42.830Z,5.83
2023-04-22T02:23:11.394Z,5.40
2023-04-22T02:25:40.544Z,5.97
2023-04-22T02:28:08.973Z,7.10
2023-04-22T02:30:37.246Z,6.43
2023-04-22T02:33:06.876Z,6.40
2023-04-22T02:35:36.386Z,6.83
2023-04-22T02:38:04.636Z,5.40
2023-04-22T02:40:32.864Z,6.20
2023-04-22T02:43:02.155Z,6.00
2023-04-22T02:45:30.420Z,6.37
2023-04-22T02:47:59.369Z,6.80
2023-04-22T02:50:28.988Z,5.10
2023-04-22T02:52:57.256Z,5.13
2023-04-22T02:55:25.679Z,5.20
2023-04-22T02:57:53.884Z,5.50
2023-04-22T03:00:22.335Z,8.10
2023-04-22T03:02:52.122Z,6.13
2023-04-22T03:05:20.704Z,5.60
2023-04-22T03:07:50.342Z,4.17
2023-04-22T03:10:18.634Z,4.23
2023-04-22T03:12:46.863Z,5.00
2023-04-22T03:15:15.212Z,6.23
2023-04-22T03:17:43.697Z,4.53
2023-04-22T03:20:12.796Z,3.97
2023-04-22T03:22:41.129Z,5.00
2023-04-22T03:25:12.032Z,4.20
2023-04-22T03:27:41.104Z,3.80
2023-04-22T03:30:10.048Z,4.10
2023-04-22T03:32:38.328Z,4.97
2023-04-22T03:35:07.210Z,4.47
2023-04-22T03:37:35.405Z,3.50
2023-04-22T03:40:05.599Z,4.40
2023-04-22T03:42:35.122Z,3.90
2023-04-22T03:45:03.673Z,4.43
2023-04-22T03:47:31.953Z,4.00
2023-04-22T03:50:00.769Z,3.60
2023-04-22T03:52:29.038Z,3.37
2023-04-22T03:54:57.318Z,3.83
2023-04-22T03:57:25.524Z,4.10
2023-04-22T03:59:55.061Z,3.73
2023-04-22T04:02:23.386Z,4.00
2023-04-22T04:04:51.884Z,3.10
2023-04-22T04:07:21.591Z,3.37
2023-04-22T04:09:49.864Z,3.53
2023-04-22T04:12:19.214Z,4.00
2023-04-22T04:14:47.941Z,3.63
2023-04-22T04:17:19.606Z,3.63
2023-04-22T04:19:48.313Z,4.13
2023-04-22T04:22:16.617Z,3.50
2023-04-22T04:24:45.747Z,3.10
2023-04-22T04:27:15.098Z,3.30
2023-04-22T04:29:43.424Z,3.70
2023-04-22T04:32:11.872Z,3.57
2023-04-22T04:34:42.387Z,2.90
2023-04-22T04:37:11.533Z,3.60
2023-04-22T04:39:40.329Z,3.37
2023-04-22T04:42:09.689Z,3.87
2023-04-22T04:44:38.159Z,3.47
2023-04-22T04:47:06.948Z,3.67
2023-04-22T04:49:39.990Z,3.00
2023-04-22T04:52:11.651Z,3.43
2023-04-22T04:54:40.723Z,3.30
2023-04-22T04:57:10.162Z,3.40
2023-04-22T04:59:38.692Z,3.40
2023-04-22T05:02:07.622Z,3.10
2023-04-22T05:04:36.433Z,2.83
2023-04-22T05:07:05.504Z,3.20
2023-04-22T05:09:37.653Z,3.13
2023-04-22T05:12:10.360Z,3.30
2023-04-22T05:14:38.864Z,3.07
2023-04-22T05:17:07.336Z,3.10
2023-04-22T05:19:35.648Z,3.50
2023-04-22T05:22:03.917Z,3.33
2023-04-22T05:24:32.346Z,3.50
2023-04-22T05:27:02.304Z,3.63
2023-04-22T05:29:31.619Z,3.07
2023-04-22T05:32:00.745Z,3.30
2023-04-22T05:34:29.148Z,3.97
2023-04-22T05:36:57.436Z,3.50
2023-04-22T05:39:26.144Z,3.47
2023-04-22T05:41:55.280Z,3.27
2023-04-22T05:44:25.030Z,3.00
2023-04-22T05:46:53.359Z,3.23
2023-04-22T05:49:21.762Z,3.33
2023-04-22T05:51:50.838Z,2.93
2023-04-22T05:54:19.868Z,3.00
2023-04-22T05:56:48.424Z,2.43
2023-04-22T05:59:19.705Z,3.20
2023-04-22T06:01:54.979Z,2.80
2023-04-22T06:04:24.118Z,3.90
2023-04-22T06:06:53.873Z,3.60
2023-04-22T06:09:22.319Z,3.40
2023-04-22T06:11:56.640Z,3.10
2023-04-22T06:14:25.269Z,3.30
2023-04-22T06:16:55.151Z,2.80
2023-04-22T06:19:23.386Z,2.50
2023-04-22T06:21:52.516Z,2.90
2023-04-22T06:24:20.783Z,3.23
2023-04-22T06:26:50.062Z,2.40
2023-04-22T06:29:18.685Z,2.90
2023-04-22T06:31:47.060Z,2.73
2023-04-22T06:34:16.876Z,2.60
2023-04-22T06:36:45.572Z,2.40
2023-04-22T06:39:20.013Z,2.50
2023-04-22T06:41:53.824Z,2.53
2023-04-22T06:44:27.544Z,2.10
2023-04-22T06:46:57.902Z,2.10
2023-04-22T06:49:30.704Z,2.70
2023-04-22T06:51:58.950Z,1.97
2023-04-22T06:54:27.271Z,2.63
2023-04-22T06:56:56.654Z,2.80
2023-04-22T06:59:25.077Z,2.53
2023-04-22T07:01:57.535Z,2.63
2023-04-22T07:04:27.710Z,2.40
2023-04-22T07:07:00.775Z,2.60
2023-04-22T07:09:29.820Z,2.30
2023-04-22T07:11:59.013Z,2.40
2023-04-22T07:14:28.133Z,2.47
2023-04-22T07:16:56.481Z,2.03
2023-04-22T07:19:25.300Z,3.00
2023-04-22T07:21:53.820Z,2.43
2023-04-22T07:24:23.830Z,2.40
2023-04-22T07:26:52.115Z,2.20
2023-04-22T07:29:20.484Z,2.10
2023-04-22T07:31:49.369Z,2.80
2023-04-22T07:34:19.952Z,2.43
2023-04-22T07:36:51.101Z,2.30
2023-04-22T07:39:29.713Z,2.30
2023-04-22T07:41:58.634Z,1.93
2023-04-22T07:44:27.438Z,2.40
2023-04-22T07:46:55.871Z,2.20
2023-04-22T07:49:24.090Z,2.43
2023-04-22T07:51:52.696Z,2.47
2023-04-22T07:54:21.116Z,2.63
2023-04-22T07:56:54.484Z,2.40
2023-04-22T07:59:22.882Z,2.23
2023-04-22T08:01:51.838Z,2.10
2023-04-22T08:04:22.454Z,2.50
2023-04-22T08:06:51.053Z,2.20
2023-04-22T08:09:19.351Z,2.20
2023-04-22T08:11:47.560Z,2.10
2023-04-22T08:14:17.362Z,2.00
2023-04-22T08:16:49.744Z,2.53
2023-04-22T08:19:18.337Z,2.00
2023-04-22T08:21:46.799Z,2.30
2023-04-22T08:24:21.219Z,2.60
2023-04-22T08:26:50.674Z,2.23
2023-04-22T08:29:20.459Z,2.10
2023-04-22T08:32:01.601Z,2.30
2023-04-22T08:34:33.362Z,2.00
2023-04-22T08:37:07.160Z,1.97
2023-04-22T08:39:35.579Z,2.00
2023-04-22T08:42:04.432Z,1.90
2023-04-22T08:44:36.016Z,2.67
2023-04-22T08:47:04.767Z,2.70
2023-04-22T08:49:35.749Z,2.43
2023-04-22T08:52:03.956Z,2.10
2023-04-22T08:54:33.223Z,2.00
2023-04-22T08:57:02.448Z,1.87
2023-04-22T08:59:33.324Z,1.70
2023-04-22T09:02:02.511Z,2.20
2023-04-22T09:04:31.230Z,1.83
2023-04-22T09:07:00.841Z,1.43
2023-04-22T09:09:34.557Z,1.67
2023-04-22T09:12:03.377Z,1.70
2023-04-22T09:14:34.682Z,2.40
2023-04-22T09:17:04.648Z,1.57
2023-04-22T09:19:32.965Z,1.70
2023-04-22T09:22:10.093Z,1.90
2023-04-22T09:24:38.341Z,1.80
2023-04-22T09:27:06.658Z,1.90
2023-04-22T09:29:37.827Z,1.90
2023-04-22T09:32:13.784Z,2.23
2023-04-22T09:34:51.623Z,1.43
2023-04-22T09:37:25.093Z,1.97
2023-04-22T09:39:55.509Z,1.90
2023-04-22T09:42:23.922Z,1.80
2023-04-22T09:44:53.915Z,2.73
2023-04-22T09:47:30.100Z,2.23
2023-04-22T09:49:58.675Z,2.17
2023-04-22T09:52:28.067Z,2.03
2023-04-22T09:54:56.238Z,1.47
2023-04-22T09:57:24.831Z,1.90
2023-04-22T09:59:56.162Z,1.80
2023-04-22T10:02:30.796Z,1.53
2023-04-22T10:05:00.323Z,2.20
2023-04-22T10:07:32.609Z,1.70
2023-04-22T10:10:01.255Z,1.80
2023-04-22T10:12:35.514Z,1.47
2023-04-22T10:15:07.195Z,1.87
2023-04-22T10:17:39.165Z,1.63
2023-04-22T10:20:14.174Z,2.00
2023-04-22T10:22:44.084Z,1.53
2023-04-22T10:25:13.986Z,1.97
2023-04-22T10:27:43.409Z,1.53
2023-04-22T10:30:28.869Z,1.80
2023-04-22T10:32:57.202Z,1.60
2023-04-22T10:35:29.854Z,2.03
2023-04-22T10:37:58.717Z,2.00
2023-04-22T10:40:26.940Z,2.20
2023-04-22T10:43:03.424Z,2.00
2023-04-22T10:45:33.882Z,1.70
2023-04-22T10:48:05.146Z,1.70
2023-04-22T10:50:33.686Z,1.80
2023-04-22T10:53:22.899Z,1.73
2023-04-22T10:55:52.366Z,2.17
2023-04-22T10:58:21.515Z,1.70
2023-04-22T11:00:59.745Z,2.00
2023-04-22T11:03:30.839Z,1.90
2023-04-22T11:06:19.469Z,2.00
2023-04-22T11:09:14.121Z,2.10
2023-04-22T11:11:54.149Z,2.00
2023-04-22T11:14:26.116Z,1.80
2023-04-22T11:17:08.271Z,1.53
2023-04-22T11:20:22.542Z,2.03
2023-04-22T11:23:41.412Z,1.80
2023-04-22T11:26:36.198Z,2.10
2023-04-22T11:29:05.047Z,2.00
2023-04-22T11:31:33.411Z,2.07
2023-04-22T11:34:06.425Z,2.03
2023-04-22T11:36:34.722Z,1.70
2023-04-22T11:39:05.195Z,1.87
2023-04-22T11:41:42.118Z,1.93
2023-04-22T11:44:10.750Z,1.80
2023-04-22T11:46:39.367Z,1.63
2023-04-22T11:49:17.111Z,1.90
2023-04-22T11:51:58.026Z,2.20
2023-04-22T11:54:33.930Z,1.80
2023-04-22T11:57:04.586Z,2.07
2023-04-22T11:59:32.893Z,1.93
2023-04-22T12:02:01.204Z,1.87
2023-04-22T12:04:30.830Z,1.93
2023-04-22T12:06:58.993Z,2.00
2023-04-22T12:09:28.331Z,2.00
2023-04-22T12:11:57.087Z,2.00
2023-04-22T12:14:32.483Z,2.27
2023-04-22T12:17:04.272Z,2.10
2023-04-22T12:19:33.862Z,1.63
2023-04-22T12:22:02.077Z,2.40
2023-04-22T12:24:30.477Z,2.20
2023-04-22T12:26:58.750Z,2.30
2023-04-22T12:29:32.993Z,2.00
2023-04-22T12:32:01.493Z,1.80
2023-04-22T12:34:29.687Z,2.00
2023-04-22T12:37:00.603Z,1.97
2023-04-22T12:39:34.095Z,2.30
2023-04-22T12:42:07.675Z,1.70
2023-04-22T12:44:42.064Z,1.70
2023-04-22T12:47:11.013Z,1.77
2023-04-22T12:49:39.746Z,2.03
2023-04-22T12:52:09.634Z,1.60
2023-04-22T12:54:38.063Z,1.60
2023-04-22T12:57:06.391Z,1.73
2023-04-22T12:59:41.041Z,2.03
2023-04-22T13:02:11.635Z,1.80
2023-04-22T13:04:40.007Z,2.27
2023-04-22T13:07:09.626Z,1.60
2023-04-22T13:09:38.132Z,2.20
2023-04-22T13:12:07.042Z,2.00
2023-04-22T13:14:35.602Z,1.80
2023-04-22T13:17:04.013Z,1.93
2023-04-22T13:19:32.271Z,1.93
2023-04-22T13:22:00.723Z,1.63
2023-04-22T13:24:30.574Z,1.40
2023-04-22T13:26:59.866Z,1.60
2023-04-22T13:29:28.183Z,1.80
2023-04-22T13:31:56.535Z,1.33
2023-04-22T13:34:24.810Z,1.73
2023-04-22T13:36:53.109Z,1.60
2023-04-22T13:39:21.989Z,1.57
2023-04-22T13:41:51.929Z,1.70
2023-04-22T13:44:20.402Z,1.73
2023-04-22T13:46:48.922Z,1.37
2023-04-22T13:49:17.142Z,1.43
2023-04-22T13:51:45.291Z,1.10
2023-04-22T13:54:13.597Z,1.90
2023-04-22T13:56:42.358Z,1.80
2023-04-22T13:59:11.968Z,1.60
2023-04-22T14:01:40.477Z,1.40
2023-04-22T14:04:08.797Z,1.80
2023-04-22T14:06:38.307Z,1.70
2023-04-22T14:09:07.010Z,1.70
2023-04-22T14:11:35.355Z,1.60
2023-04-22T14:14:03.866Z,1.57
2023-04-22T14:16:34.541Z,1.17
2023-04-22T14:19:06.049Z,1.60
2023-04-22T14:21:34.326Z,1.37
2023-04-22T14:24:02.620Z,1.80
2023-04-22T14:26:32.579Z,1.80
2023-04-22T14:29:01.027Z,1.73
2023-04-22T14:31:29.544Z,1.80
2023-04-22T14:33:59.220Z,1.53
2023-04-22T14:36:27.826Z,1.47
2023-04-22T14:38:56.299Z,1.80
2023-04-22T14:41:25.009Z,1.70
2023-04-22T14:43:53.263Z,1.67
2023-04-22T14:46:21.581Z,1.60
2023-04-22T14:48:49.864Z,1.60
2023-04-22T14:51:19.870Z,1.60
2023-04-22T14:53:48.086Z,1.40
2023-04-22T14:56:16.553Z,1.67
2023-04-22T14:58:44.983Z,1.27
2023-04-22T15:01:13.357Z,1.30
2023-04-22T15:03:42.071Z,1.67
2023-04-22T15:06:11.464Z,1.30
2023-04-22T15:08:41.170Z,1.70
2023-04-22T15:11:09.481Z,1.60
2023-04-22T15:13:37.696Z,1.37
2023-04-22T15:16:06.263Z,1.37
2023-04-22T15:18:34.567Z,1.47
2023-04-22T15:21:03.305Z,1.63
2023-04-22T15:23:31.582Z,1.93
2023-04-22T15:26:01.250Z,1.10
2023-04-22T15:28:29.546Z,1.43
2023-04-22T15:30:57.778Z,1.10
2023-04-22T15:33:26.024Z,1.20
2023-04-22T15:35:54.311Z,1.10
2023-04-22T15:38:22.680Z,1.10
2023-04-22T15:40:50.895Z,1.43
2023-04-22T15:43:20.525Z,1.30
2023-04-22T15:45:50.476Z,1.10
2023-04-22T15:48:18.721Z,1.27
2023-04-22T15:50:46.962Z,1.33
2023-04-22T15:53:17.450Z,1.30
2023-04-22T15:55:47.421Z,1.50
2023-04-22T15:58:16.842Z,1.30
2023-04-22T16:00:46.799Z,1.70
2023-04-22T16:03:15.569Z,1.27
2023-04-22T16:05:44.084Z,1.60
2023-04-22T16:08:17.671Z,1.30
2023-04-22T16:10:46.246Z,1.50
2023-04-22T16:13:14.516Z,1.50
2023-04-22T16:15:43.264Z,1.77
2023-04-22T16:18:13.817Z,1.20
2023-04-22T16:20:42.338Z,1.73
2023-04-22T16:23:10.666Z,1.60
2023-04-22T16:25:38.880Z,1.33
2023-04-22T16:28:07.165Z,1.10
2023-04-22T16:30:35.677Z,1.60
2023-04-22T16:33:04.089Z,1.30
2023-04-22T16:35:33.951Z,1.63
2023-04-22T16:38:02.537Z,1.20
2023-04-22T16:40:30.881Z,1.43
2023-04-22T16:43:03.296Z,1.87
2023-04-22T16:45:31.741Z,1.77
2023-04-22T16:48:00.000Z,1.80
2023-04-22T16:50:28.294Z,1.70
2023-04-22T16:52:57.867Z,2.00
2023-04-22T16:55:26.121Z,1.67
2023-04-22T16:57:54.299Z,1.70
2023-04-22T17:00:24.064Z,1.90
2023-04-22T17:02:52.510Z,1.90
2023-04-22T17:05:20.895Z,1.70
2023-04-22T17:07:49.071Z,2.00
2023-04-22T17:10:18.881Z,2.20
2023-04-22T17:12:47.690Z,2.20
2023-04-22T17:15:16.089Z,2.30
2023-04-22T17:17:44.465Z,2.30
2023-04-22T17:20:12.850Z,1.60
2023-04-22T17:22:41.146Z,1.97
2023-04-22T17:25:10.631Z,1.83
2023-04-22T17:27:40.258Z,1.83
2023-04-22T17:30:09.742Z,2.00
2023-04-22T17:32:38.122Z,2.07
2023-04-22T17:35:07.120Z,2.57
2023-04-22T17:37:35.916Z,2.00
2023-04-22T17:40:04.846Z,2.07
2023-04-22T17:42:44.823Z,2.40
2023-04-22T17:45:15.896Z,2.40
2023-04-22T17:47:44.224Z,1.83
2023-04-22T17:50:12.719Z,1.43
2023-04-22T17:52:41.097Z,2.00
2023-04-22T17:55:10.648Z,1.87
2023-04-22T17:57:38.807Z,2.37
2023-04-22T18:00:10.050Z,1.90
2023-04-22T18:02:39.850Z,1.70
2023-04-22T18:05:08.968Z,2.00
2023-04-22T18:07:37.254Z,1.77
2023-04-22T18:10:06.320Z,1.77
2023-04-22T18:12:34.531Z,2.03
2023-04-22T18:15:02.824Z,2.90
2023-04-22T18:17:31.294Z,2.90
2023-04-22T18:20:13.996Z,1.87
2023-04-22T18:22:49.563Z,2.10
2023-04-22T18:25:26.471Z,2.20
2023-04-22T18:28:01.597Z,1.90
2023-04-22T18:30:30.907Z,2.10
2023-04-22T18:33:00.621Z,2.80
2023-04-22T18:35:30.462Z,2.13
2023-04-22T18:37:58.821Z,1.70
2023-04-22T18:40:27.347Z,1.90
2023-04-22T18:42:55.569Z,2.00
2023-04-22T18:45:24.699Z,1.83
2023-04-22T18:47:53.000Z,2.33
2023-04-22T18:50:22.470Z,1.90
2023-04-22T18:52:52.184Z,2.03
2023-04-22T18:55:20.469Z,1.90
2023-04-22T18:57:48.659Z,1.70
2023-04-22T19:00:17.668Z,2.00
2023-04-22T19:02:46.108Z,2.10
2023-04-22T19:05:14.730Z,2.40
2023-04-22T19:07:45.070Z,1.97
2023-04-22T19:10:17.437Z,2.03
2023-04-22T19:12:45.779Z,2.30
2023-04-22T19:15:14.412Z,2.33
2023-04-22T19:17:43.384Z,2.27
2023-04-22T19:20:12.380Z,1.90
2023-04-22T19:22:40.653Z,2.10
2023-04-22T19:25:09.928Z,2.07
2023-04-22T19:27:39.658Z,2.00
2023-04-22T19:30:09.441Z,2.03
2023-04-22T19:32:37.990Z,2.00
2023-04-22T19:35:07.970Z,2.10
2023-04-22T19:37:36.203Z,2.50
2023-04-22T19:40:05.304Z,3.37
2023-04-22T19:42:33.580Z,2.50
2023-04-22T19:45:03.911Z,2.23
2023-04-22T19:47:32.644Z,3.50
2023-04-22T19:50:01.497Z,2.93
2023-04-22T19:52:34.103Z,4.93
2023-04-22T19:55:08.685Z,5.50
2023-04-22T19:57:37.796Z,5.20
2023-04-22T20:00:11.895Z,3.90
2023-04-22T20:02:41.091Z,6.00
2023-04-22T20:05:10.512Z,6.10
2023-04-22T20:07:39.841Z,6.50
2023-04-22T20:10:09.785Z,5.90
2023-04-22T20:12:38.840Z,7.90
2023-04-22T20:15:10.494Z,7.50
2023-04-22T20:17:39.465Z,7.87
2023-04-22T20:20:13.113Z,8.40
2023-04-22T20:22:42.369Z,8.50
2023-04-22T20:25:13.730Z,8.00
2023-04-22T20:27:42.725Z,8.50
2023-04-22T20:30:14.620Z,7.97
2023-04-22T20:32:43.438Z,10.03
2023-04-22T20:35:14.969Z,8.57
2023-04-22T20:37:46.219Z,10.90
2023-04-22T20:40:15.974Z,9.70
2023-04-22T20:42:44.358Z,9.47
2023-04-22T20:45:15.612Z,10.53
2023-04-22T20:47:44.419Z,10.03
2023-04-22T20:50:13.762Z,10.90
2023-04-22T20:52:43.339Z,10.60
2023-04-22T20:55:11.651Z,10.80
2023-04-22T20:57:41.084Z,10.67
2023-04-22T21:00:11.260Z,10.70
2023-04-22T21:02:41.358Z,9.40
2023-04-22T21:05:13.207Z,10.40
2023-04-22T21:07:42.032Z,9.93
2023-04-22T21:10:11.443Z,11.70
2023-04-22T21:12:40.386Z,9.40
2023-04-22T21:15:10.008Z,9.23
2023-04-22T21:17:44.306Z,9.80
2023-04-22T21:20:13.205Z,9.90
2023-04-22T21:22:44.041Z,8.47
2023-04-22T21:25:18.070Z,8.63
2023-04-22T21:27:46.933Z,8.97
2023-04-22T21:30:16.524Z,9.53
2023-04-22T21:32:46.217Z,8.93
2023-04-22T21:35:14.761Z,9.80
2023-04-22T21:37:43.053Z,9.47
2023-04-22T21:40:13.738Z,9.10
2023-04-22T21:42:42.474Z,9.93
2023-04-22T21:45:12.112Z,9.90
2023-04-22T21:47:40.659Z,8.67
2023-04-22T21:50:11.211Z,8.97
2023-04-22T21:52:39.772Z,8.10
2023-04-22T21:55:08.790Z,8.70
2023-04-22T21:57:39.278Z,9.40
2023-04-22T22:00:14.906Z,9.50
2023-04-22T22:02:43.606Z,10.60
2023-04-22T22:05:14.762Z,9.73
2023-04-22T22:07:45.026Z,10.37
2023-04-22T22:10:16.057Z,11.07
2023-04-22T22:12:44.417Z,11.40
2023-04-22T22:15:13.199Z,8.70
2023-04-22T22:17:41.454Z,8.97
2023-04-22T22:20:12.080Z,10.80
2023-04-22T22:22:42.468Z,10.80
2023-04-22T22:25:12.451Z,10.10
2023-04-22T22:27:45.409Z,9.13
2023-04-22T22:30:14.597Z,8.47
2023-04-22T22:32:43.150Z,9.23
2023-04-22T22:35:11.974Z,9.53
2023-04-22T22:37:41.685Z,9.20
2023-04-22T22:40:11.040Z,9.70
2023-04-22T22:42:39.682Z,9.33
2023-04-22T22:45:09.081Z,9.93
2023-04-22T22:47:37.682Z,9.63
2023-04-22T22:50:07.439Z,9.67
2023-04-22T22:52:35.737Z,9.00
2023-04-22T22:55:05.991Z,8.60
2023-04-22T22:57:34.447Z,9.17
2023-04-22T23:00:02.691Z,9.70
2023-04-22T23:02:31.253Z,9.27
2023-04-22T23:04:59.629Z,10.00
2023-04-22T23:07:28.020Z,9.50
2023-04-22T23:09:56.251Z,9.60
2023-04-22T23:12:25.953Z,9.20
2023-04-22T23:14:54.226Z,11.40
2023-04-22T23:17:22.830Z,9.83
2023-04-22T23:19:52.927Z,9.17
2023-04-22T23:22:21.497Z,10.17
2023-04-22T23:24:50.256Z,10.83
2023-04-22T23:27:18.909Z,9.37
2023-04-22T23:29:49.243Z,9.30
2023-04-22T23:32:21.386Z,10.30
2023-04-22T23:34:51.738Z,9.73
2023-04-22T23:37:21.227Z,10.70
2023-04-22T23:39:49.482Z,10.90
2023-04-22T23:42:17.656Z,10.40
2023-04-22T23:44:46.265Z,10.30
2023-04-22T23:47:16.002Z,10.90
2023-04-22T23:49:44.450Z,11.20
2023-04-22T23:52:13.988Z,10.70
2023-04-22T23:54:44.519Z,11.50
2023-04-22T23:57:13.392Z,11.23
2023-04-22T23:59:42.408Z,11.63
